This is the latest recevied weather packets stored in our database for station/object VK2TRB. If no packets are shown the sender has not sent any weather packets the latest 1 day(s).
| Time | Temp. | Humidity | Pressure | Rain* | Wind** | Luminosity | Snow |
|---|---|---|---|---|---|---|---|
| 1778047494 | 15° C | 70% | 1015.4 hPa | 0 mm | - | - | - |
| 1778045693 | 15.56° C | 69% | 1015.6 hPa | 0 mm | - | - | - |
| 1778044793 | 15.56° C | 71% | 1015.6 hPa | 0 mm | - | - | - |
| 1778043893 | 15.56° C | 69% | 1015.6 hPa | 0 mm | - | - | - |
| 1778042994 | 16.11° C | 65% | 1015.6 hPa | 0 mm | - | - | - |
| 1778041194 | 16.11° C | 69% | 1015.7 hPa | 0 mm | - | - | - |
| 1778040293 | 16.11° C | 70% | 1015.9 hPa | 0 mm | - | - | - |
| 1778039394 | 15.56° C | 71% | 1016.1 hPa | 0 mm | - | - | - |
| 1778038493 | 15.56° C | 75% | 1016.2 hPa | 0 mm | - | - | - |
| 1778037593 | 16.11° C | 73% | 1016.3 hPa | 0 mm | - | - | - |
| 1778036694 | 15.56° C | 76% | 1016.6 hPa | 0 mm | - | - | - |
| 1778034894 | 13.89° C | 87% | 1017.2 hPa | 0 mm | - | - | - |
| 1778033994 | 13.33° C | 94% | 1017.5 hPa | 0 mm | - | - | - |
| 1778033093 | 12.22° C | 97% | 1017.8 hPa | 0 mm | - | - | - |
| 1778032193 | 11.11° C | 96% | 1018.2 hPa | 0 mm | - | - | - |
| 1778031294 | 10.56° C | 96% | 1018.5 hPa | 0 mm | - | - | - |
| 1778030394 | 10.56° C | 96% | 1018.7 hPa | 0 mm | - | - | - |
| 1778028593 | 10° C | 97% | 1018.9 hPa | 0 mm | - | - | - |
| 1778027695 | 9.44° C | 96% | 1019 hPa | 0 mm | - | - | - |
| 1778025894 | 8.89° C | 96% | 1019 hPa | 0 mm | - | - | - |
| 1778023195 | 8.33° C | 96% | 1019 hPa | 0 mm | - | - | - |
| 1778021394 | 7.78° C | 96% | 1019 hPa | 0 mm | - | - | - |
| 1778018695 | 7.22° C | 96% | 1019 hPa | 0 mm | - | - | - |
| 1778016894 | 7.22° C | 96% | 1018.8 hPa | 0 mm | - | - | - |
* Rain latest hour (hover to see other rain measurements)
** Current wind speed in m/s (hover to see current wind gust speed)